createdAt,value
2017-09-21T00:02:08.496Z,7.91
2017-09-21T00:04:36.813Z,7.89
2017-09-21T00:07:05.115Z,7.88
2017-09-21T00:09:33.542Z,7.84
2017-09-21T00:12:01.867Z,7.80
2017-09-21T00:14:30.196Z,7.82
2017-09-21T00:16:58.502Z,7.68
2017-09-21T00:19:29.004Z,7.50
2017-09-21T00:21:57.362Z,7.63
2017-09-21T00:24:25.685Z,7.69
2017-09-21T00:26:54.102Z,7.70
2017-09-21T00:29:22.490Z,7.67
2017-09-21T00:31:50.838Z,7.64
2017-09-21T00:34:19.148Z,7.63
2017-09-21T00:36:47.460Z,7.60
2017-09-21T00:39:15.809Z,7.52
2017-09-21T00:41:44.132Z,7.55
2017-09-21T00:44:12.464Z,7.53
2017-09-21T00:46:40.770Z,7.53
2017-09-21T00:49:10.158Z,7.52
2017-09-21T00:51:38.487Z,7.45
2017-09-21T00:54:06.834Z,7.37
2017-09-21T00:56:35.933Z,7.39
2017-09-21T00:59:04.243Z,7.38
2017-09-21T01:01:32.855Z,7.36
2017-09-21T01:04:01.312Z,7.23
2017-09-21T01:06:29.672Z,7.23
2017-09-21T01:08:58.048Z,7.27
2017-09-21T01:11:26.384Z,7.33
2017-09-21T01:13:54.729Z,7.27
2017-09-21T01:16:24.725Z,7.27
2017-09-21T01:18:53.050Z,7.21
2017-09-21T01:21:21.509Z,7.23
2017-09-21T01:23:49.887Z,7.20
2017-09-21T01:26:19.119Z,7.17
2017-09-21T01:28:47.448Z,7.17
2017-09-21T01:31:15.777Z,7.14
2017-09-21T01:33:44.115Z,7.16
2017-09-21T01:36:12.459Z,7.18
2017-09-21T01:38:41.563Z,7.17
2017-09-21T01:41:10.652Z,7.12
2017-09-21T01:43:39.757Z,7.05
2017-09-21T01:46:08.075Z,6.88
2017-09-21T01:48:36.407Z,6.97
2017-09-21T01:51:05.521Z,6.87
2017-09-21T01:53:33.861Z,6.84
2017-09-21T01:56:02.207Z,6.92
2017-09-21T01:58:30.510Z,6.91
2017-09-21T02:00:58.860Z,6.84
2017-09-21T02:03:27.200Z,6.84
2017-09-21T02:05:55.513Z,6.85
2017-09-21T02:08:23.887Z,6.84
2017-09-21T02:10:52.229Z,6.83
2017-09-21T02:13:20.555Z,6.83
2017-09-21T02:15:48.923Z,6.83
2017-09-21T02:18:17.230Z,6.80
2017-09-21T02:20:46.071Z,6.81
2017-09-21T02:23:15.189Z,6.78
2017-09-21T02:25:43.546Z,6.72
2017-09-21T02:28:13.787Z,6.68
2017-09-21T02:30:42.110Z,6.60
2017-09-21T02:33:10.440Z,6.57
2017-09-21T02:35:38.763Z,6.63
2017-09-21T02:38:07.363Z,6.64
2017-09-21T02:40:35.685Z,6.65
2017-09-21T02:43:04.008Z,6.60
2017-09-21T02:45:32.448Z,6.56
2017-09-21T02:48:00.912Z,6.54
2017-09-21T02:50:30.011Z,6.46
2017-09-21T02:52:59.119Z,6.46
2017-09-21T02:55:27.985Z,6.49
2017-09-21T02:57:57.084Z,6.53
2017-09-21T03:00:26.191Z,6.48
2017-09-21T03:02:55.287Z,6.42
2017-09-21T03:05:24.442Z,6.20
2017-09-21T03:07:52.870Z,6.08
2017-09-21T03:10:21.963Z,6.19
2017-09-21T03:12:51.556Z,6.28
2017-09-21T03:15:19.863Z,6.35
2017-09-21T03:17:48.939Z,6.38
2017-09-21T03:20:17.265Z,6.39
2017-09-21T03:22:45.571Z,6.37
2017-09-21T03:25:13.913Z,6.38
2017-09-21T03:27:43.008Z,6.37
2017-09-21T03:30:11.355Z,6.37
2017-09-21T03:32:40.439Z,6.37
2017-09-21T03:35:08.773Z,6.37
2017-09-21T03:37:37.113Z,6.37
2017-09-21T03:40:06.203Z,6.41
2017-09-21T03:42:34.611Z,6.40
2017-09-21T03:45:02.961Z,6.32
2017-09-21T03:47:31.665Z,6.33
2017-09-21T03:49:59.992Z,6.36
2017-09-21T03:52:28.338Z,6.35
2017-09-21T03:54:56.689Z,6.34
2017-09-21T03:57:25.768Z,6.31
2017-09-21T03:59:54.111Z,6.29
2017-09-21T04:02:22.423Z,6.24
2017-09-21T04:04:50.769Z,6.24
2017-09-21T04:07:19.071Z,6.22
2017-09-21T04:09:47.386Z,6.23
2017-09-21T04:12:16.607Z,6.11
2017-09-21T04:14:44.939Z,6.16
2017-09-21T04:17:13.278Z,6.06
2017-09-21T04:19:41.590Z,6.08
2017-09-21T04:22:09.940Z,6.12
2017-09-21T04:24:38.250Z,6.12
2017-09-21T04:27:06.592Z,6.19
2017-09-21T04:29:34.961Z,6.21
2017-09-21T04:32:03.350Z,6.05
2017-09-21T04:34:31.674Z,6.12
2017-09-21T04:36:59.976Z,6.14
2017-09-21T04:39:28.597Z,6.15
2017-09-21T04:41:56.933Z,6.18
2017-09-21T04:44:26.176Z,6.17
2017-09-21T04:46:54.520Z,6.12
2017-09-21T04:49:23.599Z,5.90
2017-09-21T04:51:51.938Z,6.03
2017-09-21T04:54:20.245Z,6.06
2017-09-21T04:56:48.581Z,6.08
2017-09-21T04:59:16.916Z,6.08
2017-09-21T05:01:45.256Z,6.07
2017-09-21T05:04:13.596Z,5.99
2017-09-21T05:06:41.930Z,5.87
2017-09-21T05:09:10.272Z,5.79
2017-09-21T05:11:38.640Z,5.86
2017-09-21T05:14:06.959Z,5.78
2017-09-21T05:16:35.302Z,5.73
2017-09-21T05:19:03.627Z,5.77
2017-09-21T05:21:31.951Z,5.77
2017-09-21T05:24:01.040Z,5.65
2017-09-21T05:26:30.155Z,5.58
2017-09-21T05:28:58.487Z,5.61
2017-09-21T05:31:26.827Z,5.70
2017-09-21T05:33:55.194Z,5.65
2017-09-21T05:36:23.527Z,5.55
2017-09-21T05:38:51.887Z,5.56
2017-09-21T05:41:20.211Z,5.70
2017-09-21T05:43:48.815Z,5.78
2017-09-21T05:46:17.139Z,5.80
2017-09-21T05:48:45.472Z,5.76
2017-09-21T05:51:13.818Z,5.82
2017-09-21T05:53:42.147Z,5.88
2017-09-21T05:56:10.487Z,5.79
2017-09-21T05:58:38.832Z,5.88
2017-09-21T06:01:07.163Z,5.76
2017-09-21T06:03:35.542Z,5.79
2017-09-21T06:06:04.686Z,5.76
2017-09-21T06:08:33.037Z,5.75
2017-09-21T06:11:01.363Z,5.79
2017-09-21T06:13:31.830Z,5.90
2017-09-21T06:16:00.152Z,5.96
2017-09-21T06:18:28.483Z,6.05
2017-09-21T06:20:56.795Z,5.98
2017-09-21T06:23:25.123Z,6.05
2017-09-21T06:25:53.447Z,6.06
2017-09-21T06:28:21.768Z,5.97
2017-09-21T06:30:50.137Z,6.05
2017-09-21T06:33:18.532Z,6.17
2017-09-21T06:35:47.208Z,6.24
2017-09-21T06:38:15.541Z,6.22
2017-09-21T06:40:43.867Z,6.29
2017-09-21T06:43:12.206Z,6.28
2017-09-21T06:45:40.530Z,6.27
2017-09-21T06:48:08.875Z,6.27
2017-09-21T06:50:37.206Z,6.33
2017-09-21T06:53:06.298Z,6.51
2017-09-21T06:55:35.401Z,6.56
2017-09-21T06:58:03.749Z,6.58
2017-09-21T07:00:32.138Z,6.59
2017-09-21T07:03:04.110Z,6.68
2017-09-21T07:05:32.449Z,6.80
2017-09-21T07:08:00.759Z,6.85
2017-09-21T07:10:29.096Z,6.90
2017-09-21T07:12:57.453Z,6.88
2017-09-21T07:15:25.774Z,6.88
2017-09-21T07:17:54.095Z,7.04
2017-09-21T07:20:22.422Z,7.06
2017-09-21T07:22:50.765Z,7.13
2017-09-21T07:25:19.106Z,7.17
2017-09-21T07:27:47.795Z,7.23
2017-09-21T07:30:16.133Z,7.28
2017-09-21T07:32:44.455Z,7.34
2017-09-21T07:35:12.797Z,7.37
2017-09-21T07:37:41.112Z,7.51
2017-09-21T07:40:09.453Z,7.61
2017-09-21T07:42:37.785Z,7.76
2017-09-21T07:45:07.205Z,7.84
2017-09-21T07:47:35.554Z,7.99
2017-09-21T07:50:03.897Z,8.13
2017-09-21T07:52:32.243Z,8.21
2017-09-21T07:55:01.344Z,8.31
2017-09-21T07:57:29.688Z,8.42
2017-09-21T07:59:58.038Z,8.49
2017-09-21T08:02:26.869Z,8.57
2017-09-21T08:04:55.204Z,8.68
2017-09-21T08:07:23.517Z,8.78
2017-09-21T08:09:51.875Z,8.86
2017-09-21T08:12:20.183Z,8.96
2017-09-21T08:14:48.524Z,9.01
2017-09-21T08:17:16.857Z,9.10
2017-09-21T08:19:45.205Z,9.19
2017-09-21T08:22:13.520Z,9.28
2017-09-21T08:24:41.855Z,9.40
2017-09-21T08:27:10.183Z,9.50
2017-09-21T08:29:40.406Z,9.62
2017-09-21T08:32:08.758Z,9.72
2017-09-21T08:34:37.088Z,9.79
2017-09-21T08:37:05.689Z,9.88
2017-09-21T08:39:34.046Z,9.97
2017-09-21T08:42:02.436Z,10.06
2017-09-21T08:44:30.766Z,10.17
2017-09-21T08:46:59.090Z,10.28
2017-09-21T08:49:27.443Z,10.39
2017-09-21T08:51:56.540Z,10.49
2017-09-21T08:54:25.151Z,10.60
2017-09-21T08:56:53.480Z,10.70
2017-09-21T08:59:21.818Z,10.80
2017-09-21T09:01:50.163Z,10.92
2017-09-21T09:04:18.500Z,11.01
2017-09-21T09:06:46.850Z,11.12
2017-09-21T09:09:15.181Z,11.22
2017-09-21T09:11:44.415Z,11.32
2017-09-21T09:14:12.747Z,11.43
2017-09-21T09:16:41.107Z,11.53
2017-09-21T09:19:09.452Z,11.61
2017-09-21T09:21:37.784Z,11.73
2017-09-21T09:24:06.128Z,11.81
2017-09-21T09:26:34.447Z,11.89
2017-09-21T09:29:02.767Z,11.99
2017-09-21T09:31:31.110Z,12.12
2017-09-21T09:34:00.203Z,12.24
2017-09-21T09:36:28.543Z,12.36
2017-09-21T09:38:56.873Z,12.44
2017-09-21T09:41:26.013Z,12.55
2017-09-21T09:43:54.361Z,12.65
2017-09-21T09:46:23.439Z,12.76
2017-09-21T09:48:51.781Z,12.87
2017-09-21T09:51:20.951Z,12.97
2017-09-21T09:53:49.284Z,13.06
2017-09-21T09:56:17.615Z,13.13
2017-09-21T09:58:46.015Z,13.17
2017-09-21T10:01:14.364Z,13.24
2017-09-21T10:03:42.701Z,13.36
2017-09-21T10:06:11.051Z,13.44
2017-09-21T10:08:39.371Z,13.52
2017-09-21T10:11:07.721Z,13.55
2017-09-21T10:13:36.060Z,13.64
2017-09-21T10:16:04.426Z,13.74
2017-09-21T10:18:32.789Z,13.82
2017-09-21T10:21:01.888Z,13.86
2017-09-21T10:23:30.244Z,13.91
2017-09-21T10:25:58.565Z,13.97
2017-09-21T10:28:27.698Z,14.03
2017-09-21T10:30:56.033Z,14.08
2017-09-21T10:33:24.393Z,14.13
2017-09-21T10:35:52.740Z,14.20
2017-09-21T10:38:21.058Z,14.26
2017-09-21T10:40:49.384Z,14.34
2017-09-21T10:43:17.700Z,14.36
2017-09-21T10:45:46.038Z,14.43
2017-09-21T10:48:14.344Z,14.48
2017-09-21T10:50:42.662Z,14.51
2017-09-21T10:53:11.772Z,14.63
2017-09-21T10:55:40.093Z,14.68
2017-09-21T10:58:08.442Z,14.69
2017-09-21T11:00:36.777Z,14.75
2017-09-21T11:03:05.108Z,14.83
2017-09-21T11:05:33.505Z,14.92
2017-09-21T11:08:01.816Z,14.97
2017-09-21T11:10:30.177Z,15.01
2017-09-21T11:12:59.252Z,15.08
2017-09-21T11:15:28.095Z,15.13
2017-09-21T11:17:56.420Z,15.17
2017-09-21T11:20:24.743Z,15.25
2017-09-21T11:22:53.097Z,15.36
2017-09-21T11:25:21.421Z,15.40
2017-09-21T11:27:50.789Z,15.45
2017-09-21T11:30:19.122Z,15.46
2017-09-21T11:32:47.594Z,15.47
2017-09-21T11:35:15.993Z,15.51
2017-09-21T11:37:44.317Z,15.51
2017-09-21T11:40:12.664Z,15.56
2017-09-21T11:42:41.006Z,15.63
2017-09-21T11:45:09.380Z,15.68
2017-09-21T11:47:37.725Z,15.68
2017-09-21T11:50:06.050Z,15.68
2017-09-21T11:52:34.395Z,15.67
2017-09-21T11:55:02.732Z,15.90
2017-09-21T11:57:31.993Z,15.93
2017-09-21T12:00:01.171Z,15.97
2017-09-21T12:02:30.071Z,16.02
2017-09-21T12:04:58.403Z,16.04
2017-09-21T12:07:26.737Z,16.09
2017-09-21T12:09:55.848Z,16.20
2017-09-21T12:12:24.178Z,16.28
2017-09-21T12:14:52.544Z,16.33
2017-09-21T12:17:20.874Z,16.32
2017-09-21T12:19:49.982Z,16.30
2017-09-21T12:22:19.102Z,16.38
2017-09-21T12:24:47.433Z,16.46
2017-09-21T12:27:15.802Z,16.47
2017-09-21T12:29:44.137Z,16.41
2017-09-21T12:32:12.739Z,16.52
2017-09-21T12:34:41.072Z,16.64
2017-09-21T12:37:10.186Z,16.67
2017-09-21T12:39:38.520Z,16.70
2017-09-21T12:42:06.837Z,16.71
2017-09-21T12:44:35.941Z,16.70
2017-09-21T12:47:04.267Z,16.75
2017-09-21T12:49:32.870Z,16.82
2017-09-21T12:52:01.211Z,16.84
2017-09-21T12:54:29.543Z,16.89
2017-09-21T12:56:57.892Z,16.97
2017-09-21T12:59:26.216Z,16.99
2017-09-21T13:01:54.640Z,16.95
2017-09-21T13:04:22.978Z,16.95
2017-09-21T13:06:51.326Z,16.95
2017-09-21T13:09:19.678Z,17.02
2017-09-21T13:11:48.048Z,17.09
2017-09-21T13:14:16.402Z,17.08
2017-09-21T13:16:44.769Z,17.13
2017-09-21T13:19:13.112Z,17.14
2017-09-21T13:21:41.445Z,17.14
2017-09-21T13:24:09.834Z,17.18
2017-09-21T13:26:38.186Z,17.23
2017-09-21T13:29:06.527Z,17.14
2017-09-21T13:31:34.876Z,17.21
2017-09-21T13:34:03.210Z,17.26
2017-09-21T13:36:31.554Z,17.38
2017-09-21T13:38:59.958Z,17.44
2017-09-21T13:41:28.319Z,17.48
2017-09-21T13:43:56.670Z,17.52
2017-09-21T13:46:25.002Z,17.56
2017-09-21T13:48:53.337Z,17.62
2017-09-21T13:51:22.489Z,17.72
2017-09-21T13:53:50.831Z,17.77
2017-09-21T13:56:19.147Z,17.80
2017-09-21T13:58:48.270Z,17.85
2017-09-21T14:01:16.629Z,17.89
2017-09-21T14:03:44.985Z,17.94
2017-09-21T14:06:13.917Z,17.96
2017-09-21T14:08:42.232Z,18.04
2017-09-21T14:11:10.575Z,18.11
2017-09-21T14:13:38.946Z,18.22
2017-09-21T14:16:07.527Z,18.45
2017-09-21T14:18:36.620Z,18.59
2017-09-21T14:21:04.941Z,18.59
2017-09-21T14:23:33.289Z,18.63
2017-09-21T14:26:01.617Z,18.77
2017-09-21T14:28:32.171Z,18.89
2017-09-21T14:31:01.432Z,18.92
2017-09-21T14:33:29.879Z,19.12
2017-09-21T14:35:58.293Z,19.28
2017-09-21T14:38:30.469Z,19.48
2017-09-21T14:40:59.254Z,19.77
2017-09-21T14:43:28.519Z,20.01
2017-09-21T14:45:57.940Z,20.14
2017-09-21T14:48:28.203Z,20.34
2017-09-21T14:50:57.368Z,20.56
2017-09-21T14:53:26.160Z,20.61
2017-09-21T14:55:59.081Z,20.81
2017-09-21T14:58:27.426Z,20.73
2017-09-21T15:00:56.706Z,20.91
2017-09-21T15:03:34.177Z,21.08
2017-09-21T15:06:11.942Z,21.30
2017-09-21T15:08:51.626Z,21.50
2017-09-21T15:11:27.926Z,21.61
2017-09-21T15:14:06.317Z,21.71
2017-09-21T15:16:41.617Z,21.57
2017-09-21T15:19:10.075Z,21.80
2017-09-21T15:21:39.355Z,21.91
2017-09-21T15:24:07.841Z,21.93
2017-09-21T15:26:36.207Z,21.96
2017-09-21T15:29:06.329Z,21.96
2017-09-21T15:31:35.656Z,22.02
2017-09-21T15:34:04.093Z,21.90
2017-09-21T15:36:33.657Z,21.65
2017-09-21T15:39:01.988Z,21.53
2017-09-21T15:41:33.552Z,21.47
2017-09-21T15:44:01.974Z,21.54
2017-09-21T15:46:32.097Z,21.34
2017-09-21T15:49:00.453Z,21.22
2017-09-21T15:51:31.029Z,21.12
2017-09-21T15:53:59.460Z,21.01
2017-09-21T15:56:27.810Z,20.83
2017-09-21T15:58:56.800Z,20.84
2017-09-21T16:01:26.365Z,20.67
2017-09-21T16:03:57.299Z,20.50
2017-09-21T16:06:29.867Z,20.19
2017-09-21T16:08:58.648Z,19.94
2017-09-21T16:11:27.026Z,19.74
2017-09-21T16:13:55.508Z,19.42
2017-09-21T16:16:26.142Z,19.39
2017-09-21T16:18:54.477Z,19.12
2017-09-21T16:21:23.327Z,19.03
2017-09-21T16:23:52.039Z,18.87
2017-09-21T16:26:24.193Z,18.57
2017-09-21T16:28:56.159Z,18.54
2017-09-21T16:31:25.762Z,18.44
2017-09-21T16:33:54.581Z,18.26
2017-09-21T16:36:24.966Z,18.08
2017-09-21T16:39:01.294Z,17.95
2017-09-21T16:41:32.718Z,17.77
2017-09-21T16:44:07.710Z,17.75
2017-09-21T16:46:36.343Z,17.66
2017-09-21T16:49:15.781Z,17.52
2017-09-21T16:51:44.178Z,17.42
2017-09-21T16:54:14.578Z,17.34
2017-09-21T16:56:42.985Z,17.26
2017-09-21T16:59:24.735Z,17.17
2017-09-21T17:02:01.260Z,17.05
2017-09-21T17:04:36.178Z,16.86
2017-09-21T17:07:05.513Z,16.78
2017-09-21T17:09:37.837Z,16.64
2017-09-21T17:12:07.097Z,16.62
2017-09-21T17:14:49.512Z,16.46
2017-09-21T17:17:27.485Z,16.41
2017-09-21T17:20:06.460Z,16.20
2017-09-21T17:22:46.967Z,15.98
2017-09-21T17:25:25.774Z,15.92
2017-09-21T17:27:54.690Z,15.95
2017-09-21T17:30:35.753Z,15.82
2017-09-21T17:33:05.806Z,15.80
2017-09-21T17:35:34.173Z,15.81
2017-09-21T17:38:02.495Z,15.68
2017-09-21T17:40:30.847Z,15.56
2017-09-21T17:42:59.963Z,15.42
2017-09-21T17:45:28.586Z,15.30
2017-09-21T17:47:56.916Z,15.09
2017-09-21T17:50:25.244Z,15.03
2017-09-21T17:52:54.816Z,14.97
2017-09-21T17:55:24.056Z,14.89
2017-09-21T17:57:52.487Z,14.82
2017-09-21T18:00:20.949Z,14.73
2017-09-21T18:02:51.089Z,14.59
2017-09-21T18:05:19.467Z,14.60
2017-09-21T18:07:47.835Z,14.54
2017-09-21T18:10:17.501Z,14.54
2017-09-21T18:12:45.839Z,14.42
2017-09-21T18:15:16.393Z,14.38
2017-09-21T18:17:44.754Z,14.43
2017-09-21T18:20:13.122Z,14.40
2017-09-21T18:22:44.104Z,14.29
2017-09-21T18:25:13.596Z,14.23
2017-09-21T18:27:41.994Z,13.98
2017-09-21T18:30:11.268Z,13.97
2017-09-21T18:32:41.760Z,13.97
2017-09-21T18:35:12.012Z,13.93
2017-09-21T18:37:41.323Z,13.92
2017-09-21T18:40:11.839Z,13.92
2017-09-21T18:42:40.234Z,13.73
2017-09-21T18:45:10.731Z,13.77
2017-09-21T18:47:40.491Z,13.62
2017-09-21T18:50:08.837Z,13.59
2017-09-21T18:52:40.887Z,13.62
2017-09-21T18:55:10.897Z,13.52
2017-09-21T18:57:40.315Z,13.34
2017-09-21T19:00:09.448Z,13.29
2017-09-21T19:02:45.649Z,13.27
2017-09-21T19:05:14.111Z,13.30
2017-09-21T19:07:42.444Z,13.29
2017-09-21T19:10:10.830Z,13.27
2017-09-21T19:12:39.211Z,13.20
2017-09-21T19:15:14.608Z,13.15
2017-09-21T19:17:43.985Z,12.99
2017-09-21T19:20:13.249Z,13.06
2017-09-21T19:22:42.581Z,13.03
2017-09-21T19:25:11.888Z,12.98
2017-09-21T19:27:42.385Z,12.98
2017-09-21T19:30:10.777Z,12.98
2017-09-21T19:32:48.944Z,12.95
2017-09-21T19:35:23.782Z,12.76
2017-09-21T19:37:52.190Z,12.74
2017-09-21T19:40:22.396Z,12.74
2017-09-21T19:42:53.571Z,12.66
2017-09-21T19:45:23.825Z,12.67
2017-09-21T19:47:52.186Z,12.60
2017-09-21T19:50:22.687Z,12.65
2017-09-21T19:52:56.936Z,12.61
2017-09-21T19:55:25.355Z,12.51
2017-09-21T19:57:53.696Z,12.37
2017-09-21T20:00:22.055Z,12.38
2017-09-21T20:03:01.446Z,12.38
2017-09-21T20:05:45.628Z,12.36
2017-09-21T20:08:14.838Z,12.39
2017-09-21T20:10:45.454Z,12.25
2017-09-21T20:13:16.525Z,12.30
2017-09-21T20:15:44.881Z,12.28
2017-09-21T20:18:15.146Z,12.23
2017-09-21T20:20:44.413Z,12.17
2017-09-21T20:23:15.601Z,12.15
2017-09-21T20:25:43.940Z,12.07
2017-09-21T20:28:18.867Z,12.08
2017-09-21T20:30:48.974Z,11.96
2017-09-21T20:33:22.611Z,11.93
2017-09-21T20:35:51.892Z,11.93
2017-09-21T20:38:22.142Z,11.87
2017-09-21T20:40:51.431Z,11.83
2017-09-21T20:43:19.801Z,11.80
2017-09-21T20:45:49.135Z,11.67
2017-09-21T20:48:19.625Z,11.72
2017-09-21T20:50:55.368Z,11.66
2017-09-21T20:53:23.758Z,11.51
2017-09-21T20:55:56.784Z,11.46
2017-09-21T20:58:25.140Z,11.52
2017-09-21T21:00:58.237Z,11.52
2017-09-21T21:03:31.096Z,11.57
2017-09-21T21:06:00.529Z,11.50
2017-09-21T21:08:30.941Z,11.35
2017-09-21T21:11:02.498Z,11.39
2017-09-21T21:13:33.540Z,11.40
2017-09-21T21:16:09.268Z,11.38
2017-09-21T21:18:37.670Z,11.28
2017-09-21T21:21:13.977Z,11.28
2017-09-21T21:23:44.253Z,11.26
2017-09-21T21:26:14.906Z,11.19
2017-09-21T21:28:44.402Z,11.22
2017-09-21T21:31:14.642Z,11.09
2017-09-21T21:33:43.957Z,11.06
2017-09-21T21:36:15.671Z,10.99
2017-09-21T21:38:45.929Z,11.00
2017-09-21T21:41:14.290Z,10.97
2017-09-21T21:43:44.925Z,10.98
2017-09-21T21:46:14.125Z,10.99
2017-09-21T21:48:43.415Z,10.97
2017-09-21T21:51:14.593Z,10.88
2017-09-21T21:53:42.930Z,10.67
2017-09-21T21:56:12.261Z,10.68
2017-09-21T21:58:40.627Z,10.73
2017-09-21T22:01:09.965Z,10.77
2017-09-21T22:03:40.468Z,10.67
2017-09-21T22:06:17.431Z,10.62
2017-09-21T22:08:47.671Z,10.60
2017-09-21T22:11:20.651Z,10.63
2017-09-21T22:13:54.564Z,10.61
2017-09-21T22:16:23.882Z,10.64
2017-09-21T22:18:57.247Z,10.58
2017-09-21T22:21:25.571Z,10.56
2017-09-21T22:23:54.815Z,10.57
2017-09-21T22:26:27.519Z,10.53
2017-09-21T22:29:15.597Z,10.51
2017-09-21T22:31:45.799Z,10.45
2017-09-21T22:34:15.083Z,10.37
2017-09-21T22:36:48.998Z,10.29
2017-09-21T22:39:21.381Z,10.34
2017-09-21T22:41:55.566Z,10.33
2017-09-21T22:44:23.969Z,10.20
2017-09-21T22:46:56.744Z,10.20
2017-09-21T22:49:25.082Z,10.21
2017-09-21T22:51:54.329Z,10.22
2017-09-21T22:54:23.638Z,10.21
2017-09-21T22:57:10.042Z,10.16
2017-09-21T22:59:38.545Z,10.04
2017-09-21T23:02:07.817Z,10.01
2017-09-21T23:04:37.507Z,10.01
2017-09-21T23:07:05.840Z,10.00
2017-09-21T23:09:34.166Z,9.92
2017-09-21T23:12:03.601Z,9.92
2017-09-21T23:14:31.918Z,9.89
2017-09-21T23:17:01.208Z,9.86
2017-09-21T23:19:32.919Z,9.77
2017-09-21T23:22:04.437Z,9.71
2017-09-21T23:24:32.750Z,9.71
2017-09-21T23:27:02.965Z,9.58
2017-09-21T23:29:31.376Z,9.71
2017-09-21T23:31:59.727Z,9.73
2017-09-21T23:34:28.133Z,9.74
2017-09-21T23:37:00.473Z,9.72
2017-09-21T23:39:29.285Z,9.64
2017-09-21T23:41:58.536Z,9.57
2017-09-21T23:44:32.785Z,9.47
2017-09-21T23:47:01.120Z,9.49
2017-09-21T23:49:34.722Z,9.54
2017-09-21T23:52:03.056Z,9.38
2017-09-21T23:54:34.225Z,9.37
2017-09-21T23:57:02.637Z,9.39
2017-09-21T23:59:31.885Z,9.38
